Time;durP1;ratioP1;P1;durP2;ratioP2;P2;SDS_P1;SDS_P2;PMS_P1;PMS_P2;Temp;Humidity;BMP_temperature;BMP_pressure;BME280_temperature;BME280_humidity;BME280_pressure;Samples;Min_cycle;Max_cycle;Signal;HPM_P1;HPM_P2
2024/02/18 00:02:47;;;;;;;84.63;62.03;;;3.60;99.90;6.30;98278.00;;;;5047006;28;20201;-85
2024/02/18 00:05:36;;;;;;;71.10;54.43;;;4.30;99.90;6.60;98287.00;;;;5036297;28;20221;-86
2024/02/18 00:08:25;;;;;;;69.50;54.10;;;4.30;99.90;6.60;98286.00;;;;5037493;28;20220;-85
2024/02/18 00:11:15;;;;;;;67.17;52.77;;;4.20;99.90;6.60;98298.00;;;;5032452;28;20220;-86
2024/02/18 00:14:04;;;;;;;69.97;52.93;;;4.20;99.90;6.50;98284.00;;;;5037206;28;20228;-85
2024/02/18 00:16:54;;;;;;;63.80;50.63;;;4.10;99.90;6.50;98290.00;;;;5038167;28;20222;-85
2024/02/18 00:19:43;;;;;;;76.80;56.67;;;4.10;99.90;6.50;98284.00;;;;5038078;28;20216;-85
2024/02/18 00:22:32;;;;;;;65.27;52.03;;;4.10;99.90;5.80;98285.00;;;;5044612;28;20198;-86
2024/02/18 00:25:21;;;;;;;64.23;51.70;;;4.00;99.90;5.80;98282.00;;;;5042472;28;20232;-83
2024/02/18 00:28:10;;;;;;;64.40;50.97;;;3.80;99.90;6.20;98284.00;;;;5049060;28;20204;-85
2024/02/18 00:30:58;;;;;;;67.47;52.30;;;3.80;99.90;6.30;98285.00;;;;5039229;28;20259;-86
2024/02/18 00:33:49;;;;;;;74.80;55.33;;;3.80;99.90;6.30;98287.00;;;;5010010;28;20224;-84
2024/02/18 00:36:38;;;;;;;72.33;54.90;;;3.80;99.90;6.20;98287.00;;;;5039679;28;20247;-83
2024/02/18 00:39:27;;;;;;;67.20;51.63;;;3.80;99.90;5.80;98281.00;;;;5040941;28;20197;-85
2024/02/18 00:42:16;;;;;;;109.70;82.57;;;3.80;99.90;6.10;98280.00;;;;5033136;28;20204;-86
2024/02/18 00:45:06;;;;;;;67.57;51.03;;;3.70;99.90;6.20;98283.00;;;;5049292;28;20224;-85
2024/02/18 00:47:55;;;;;;;67.37;50.53;;;3.70;99.90;5.70;98273.00;;;;5046271;28;20201;-86
2024/02/18 00:50:45;;;;;;;74.90;54.73;;;3.70;99.90;6.00;98286.00;;;;5049041;28;20249;-85
2024/02/18 00:53:34;;;;;;;76.93;56.37;;;3.70;99.90;5.60;98282.00;;;;5038774;28;20235;-84
2024/02/18 00:56:25;;;;;;;66.67;50.10;;;3.60;99.90;5.70;98282.00;;;;5042396;28;20198;-86
2024/02/18 00:59:14;;;;;;;75.97;53.87;;;3.50;99.90;5.80;98290.00;;;;5043227;28;20872;-86
2024/02/18 01:02:03;;;;;;;69.40;51.70;;;3.50;99.90;5.80;98284.00;;;;5013121;28;20201;-86
2024/02/18 01:04:52;;;;;;;79.43;56.07;;;3.50;99.90;5.50;98289.00;;;;5040610;28;22306;-87
2024/02/18 01:07:42;;;;;;;77.57;55.10;;;3.40;99.90;5.30;98279.00;;;;5043650;28;20217;-87
2024/02/18 01:10:31;;;;;;;66.07;50.83;;;3.30;99.90;5.40;98281.00;;;;5048423;28;20220;-86
2024/02/18 01:13:20;;;;;;;65.43;50.43;;;3.30;99.90;5.60;98279.00;;;;5045368;28;20232;-86
2024/02/18 01:16:08;;;;;;;63.67;49.33;;;3.20;99.90;5.60;98291.00;;;;5050908;28;20709;-85
2024/02/18 01:18:57;;;;;;;65.63;49.53;;;3.20;99.90;5.40;98281.00;;;;5045102;28;20207;-85
2024/02/18 01:21:46;;;;;;;66.60;50.77;;;3.10;99.90;5.30;98279.00;;;;5046750;28;20851;-84
2024/02/18 01:24:36;;;;;;;66.63;49.67;;;3.10;99.90;5.10;98287.00;;;;5040631;28;20228;-86
2024/02/18 01:27:25;;;;;;;56.43;44.27;;;3.00;99.90;4.80;98280.00;;;;5040545;28;20252;-85
2024/02/18 01:30:15;;;;;;;71.73;50.00;;;3.00;99.90;5.10;98281.00;;;;5041041;28;20429;-83
2024/02/18 01:33:04;;;;;;;73.93;50.93;;;2.90;99.90;5.50;98289.00;;;;5043797;28;20456;-85
2024/02/18 01:35:54;;;;;;;68.40;49.47;;;3.10;99.90;5.30;98287.00;;;;5039451;28;20206;-86
2024/02/18 01:38:43;;;;;;;74.37;51.33;;;3.00;99.90;5.00;98281.00;;;;5040094;28;20439;-83
2024/02/18 01:41:33;;;;;;;73.67;51.73;;;2.90;99.90;4.80;98292.00;;;;5040860;28;20424;-83
2024/02/18 01:44:22;;;;;;;70.97;48.80;;;2.80;99.90;4.80;98288.00;;;;5035927;28;20982;-83
2024/02/18 01:47:10;;;;;;;70.67;48.90;;;2.70;99.90;5.10;98292.00;;;;5038272;28;20459;-83
2024/02/18 01:50:00;;;;;;;77.77;52.67;;;2.80;99.90;5.20;98288.00;;;;5046591;28;20437;-84
2024/02/18 01:52:52;;;;;;;71.97;50.13;;;2.80;99.90;4.90;98294.00;;;;5040022;28;20427;-84
2024/02/18 01:55:41;;;;;;;80.23;54.60;;;2.80;99.90;4.70;98293.00;;;;5039283;28;20470;-85
2024/02/18 01:58:33;;;;;;;74.77;52.13;;;2.70;99.90;4.70;98300.00;;;;5044734;28;20420;-82
2024/02/18 02:01:22;;;;;;;66.80;48.60;;;2.60;99.90;4.90;98306.00;;;;5039565;28;20417;-84
2024/02/18 02:04:12;;;;;;;73.33;49.67;;;2.60;99.90;5.10;98298.00;;;;5040534;28;21080;-84
2024/02/18 02:07:01;;;;;;;77.33;52.57;;;2.60;99.90;5.10;98298.00;;;;5040160;28;20471;-82
2024/02/18 02:09:51;;;;;;;72.13;52.20;;;2.60;99.90;4.60;98285.00;;;;5039026;28;20941;-83
2024/02/18 02:12:41;;;;;;;71.43;51.70;;;2.60;99.90;4.70;98300.00;;;;5038170;28;20439;-84
2024/02/18 02:15:31;;;;;;;57.40;46.47;;;2.50;99.90;4.30;98294.00;;;;5045985;28;20420;-84
2024/02/18 02:18:20;;;;;;;64.67;48.47;;;2.50;99.90;3.60;98288.00;;;;5042126;28;20427;-84
2024/02/18 02:21:09;;;;;;;59.97;45.77;;;2.20;99.90;3.80;98301.00;;;;5034483;28;20966;-83
2024/02/18 02:23:58;;;;;;;58.53;46.13;;;2.10;99.90;4.30;98295.00;;;;5042437;28;20443;-82
2024/02/18 02:26:50;;;;;;;68.77;50.50;;;2.20;99.90;4.10;98280.00;;;;5041347;28;20476;-82
2024/02/18 02:29:41;;;;;;;64.60;48.73;;;2.20;99.90;3.20;98272.00;;;;5040883;28;20467;-82
2024/02/18 02:32:31;;;;;;;158.03;110.57;;;2.00;99.90;3.80;98275.00;;;;5024836;28;20424;-83
2024/02/18 02:35:20;;;;;;;53.23;42.77;;;1.90;99.90;4.30;98285.00;;;;5030681;28;21003;-84
2024/02/18 02:38:09;;;;;;;48.07;39.17;;;1.90;99.90;4.30;98291.00;;;;5043528;28;20416;-84
2024/02/18 02:40:58;;;;;;;56.33;45.17;;;2.10;99.90;4.30;98280.00;;;;5041506;28;20430;-85
2024/02/18 02:43:47;;;;;;;133.07;86.37;;;2.10;99.90;4.50;98280.00;;;;5032295;28;20977;-83
2024/02/18 02:46:37;;;;;;;62.30;46.53;;;2.10;99.90;4.60;98282.00;;;;5041846;28;20474;-85
2024/02/18 02:49:26;;;;;;;63.73;46.20;;;2.10;99.90;4.60;98297.00;;;;5041732;28;20963;-85
2024/02/18 02:52:15;;;;;;;53.60;41.43;;;2.20;99.90;4.60;98291.00;;;;5040331;28;20431;-85
2024/02/18 02:55:05;;;;;;;56.33;43.87;;;2.20;99.90;3.80;98293.00;;;;5048823;28;20455;-85
2024/02/18 02:57:54;;;;;;;57.30;43.63;;;2.10;99.90;4.10;98295.00;;;;5038113;28;20444;-85
2024/02/18 03:00:43;;;;;;;64.53;47.73;;;2.00;99.90;3.90;98302.00;;;;5035539;28;20437;-85
2024/02/18 03:03:33;;;;;;;62.90;47.53;;;2.00;99.90;4.00;98288.00;;;;5038413;28;20455;-85
2024/02/18 03:06:22;;;;;;;64.13;46.70;;;1.90;99.90;4.30;98302.00;;;;5029808;28;21026;-85
2024/02/18 03:09:12;;;;;;;64.73;47.20;;;2.00;99.90;4.30;98299.00;;;;5037072;28;20430;-85
2024/02/18 03:12:02;;;;;;;54.03;42.17;;;2.00;99.90;3.70;98294.00;;;;5045368;28;20450;-86
2024/02/18 03:14:51;;;;;;;68.67;50.63;;;1.90;99.90;3.60;98294.00;;;;5045552;28;20826;-85
2024/02/18 03:17:40;;;;;;;64.60;48.10;;;1.90;99.90;3.40;98301.00;;;;5040330;28;20804;-85
2024/02/18 03:20:32;;;;;;;53.10;41.13;;;1.80;99.90;3.50;98301.00;;;;5036908;28;20433;-85
2024/02/18 03:23:20;;;;;;;55.87;43.00;;;1.70;99.90;4.00;98302.00;;;;5042634;28;20470;-85
2024/02/18 03:26:09;;;;;;;63.10;45.77;;;1.70;99.90;4.20;98304.00;;;;5041461;28;20510;-83
2024/02/18 03:28:58;;;;;;;57.07;43.57;;;1.80;99.90;3.90;98292.00;;;;5035708;28;20427;-85
2024/02/18 03:31:47;;;;;;;93.60;63.13;;;1.80;99.90;3.60;98283.00;;;;5036219;28;20424;-86
2024/02/18 03:34:36;;;;;;;58.13;43.73;;;1.70;99.90;3.10;98281.00;;;;5041033;28;20459;-85
2024/02/18 03:37:26;;;;;;;58.00;42.43;;;1.60;99.90;2.50;98283.00;;;;5047588;28;20458;-85
2024/02/18 03:40:15;;;;;;;62.37;45.53;;;1.40;99.90;2.60;98285.00;;;;5042060;28;20427;-85
2024/02/18 03:43:05;;;;;;;60.73;43.47;;;1.30;99.90;3.50;98289.00;;;;5045007;28;20451;-85
2024/02/18 03:45:53;;;;;;;74.67;48.97;;;1.30;99.90;3.90;98299.00;;;;5039023;28;20530;-83
2024/02/18 03:48:42;;;;;;;69.70;47.33;;;1.40;99.90;3.60;98291.00;;;;5031449;28;22601;-85
2024/02/18 03:51:31;;;;;;;64.37;45.90;;;1.50;99.90;2.50;98283.00;;;;5040833;28;20421;-84
2024/02/18 03:54:22;;;;;;;63.37;44.23;;;1.40;99.90;3.00;98296.00;;;;5040019;28;20462;-86
2024/02/18 03:57:10;;;;;;;68.00;46.73;;;1.30;99.90;3.40;98295.00;;;;5043251;28;20420;-85
2024/02/18 03:59:59;;;;;;;66.90;46.27;;;1.40;99.90;4.00;98301.00;;;;5038931;28;20432;-84
2024/02/18 04:02:48;;;;;;;79.13;51.53;;;1.60;99.90;4.00;98294.00;;;;5044256;28;20465;-83
2024/02/18 04:05:38;;;;;;;71.23;46.87;;;1.60;99.90;4.10;98307.00;;;;5037709;28;20427;-85
2024/02/18 04:08:26;;;;;;;83.17;53.47;;;1.70;99.90;3.80;98310.00;;;;5029523;28;20459;-86
2024/02/18 04:11:17;;;;;;;77.20;49.07;;;1.60;99.90;3.80;98311.00;;;;5043837;28;20450;-85
2024/02/18 04:14:07;;;;;;;82.37;51.77;;;1.60;99.90;3.90;98310.00;;;;5042215;28;21025;-84
2024/02/18 04:16:55;;;;;;;82.10;51.70;;;1.60;99.90;3.60;98309.00;;;;5043821;28;20435;-83
2024/02/18 04:19:44;;;;;;;79.13;52.27;;;1.50;99.90;3.50;98303.00;;;;5041806;28;20956;-86
2024/02/18 04:22:34;;;;;;;75.33;48.53;;;1.40;99.90;3.40;98301.00;;;;5041794;28;20432;-85
2024/02/18 04:25:23;;;;;;;75.57;49.13;;;1.40;99.90;3.40;98315.00;;;;5045480;28;20427;-85
2024/02/18 04:28:13;;;;;;;75.37;47.67;;;1.40;99.90;3.20;98301.00;;;;5044284;28;20469;-86
2024/02/18 04:31:02;;;;;;;73.87;46.77;;;1.30;99.90;3.10;98314.00;;;;5041943;28;20959;-83
2024/02/18 04:33:51;;;;;;;87.07;53.47;;;1.30;99.90;3.10;98294.00;;;;5045373;28;20454;-85
2024/02/18 04:36:40;;;;;;;78.30;49.77;;;1.30;99.90;3.10;98306.00;;;;5050924;28;20431;-85
2024/02/18 04:39:29;;;;;;;72.73;47.13;;;1.30;99.90;3.60;98306.00;;;;5040987;28;20420;-85
2024/02/18 04:42:18;;;;;;;74.93;47.40;;;1.30;99.90;3.40;98300.00;;;;5041458;28;20822;-83
2024/02/18 04:45:09;;;;;;;74.03;47.20;;;1.40;99.90;3.30;98294.00;;;;5045464;28;20427;-85
2024/02/18 04:47:59;;;;;;;75.50;48.30;;;1.40;99.90;3.40;98288.00;;;;5041244;28;20995;-83
2024/02/18 04:50:48;;;;;;;82.63;51.83;;;1.40;99.90;3.70;98295.00;;;;5051797;28;20484;-85
2024/02/18 04:53:37;;;;;;;82.03;51.97;;;1.50;99.90;3.30;98297.00;;;;5039198;28;20462;-86
2024/02/18 04:56:26;;;;;;;69.67;46.23;;;1.40;99.90;2.50;98293.00;;;;5051289;28;20439;-85
2024/02/18 04:59:15;;;;;;;71.30;48.30;;;1.30;99.90;2.30;98274.00;;;;5049965;28;20427;-86
2024/02/18 05:02:07;;;;;;;56.87;41.20;;;1.10;99.90;3.20;98287.00;;;;5045274;28;20427;-85
2024/02/18 05:04:56;;;;;;;62.53;43.10;;;1.10;99.90;3.50;98303.00;;;;5038282;28;20459;-85
2024/02/18 05:07:45;;;;;;;70.50;47.93;;;1.10;99.90;3.50;98297.00;;;;5046381;28;20463;-84
2024/02/18 05:10:34;;;;;;;67.47;45.67;;;1.10;99.90;3.10;98295.00;;;;5041286;28;20458;-85
2024/02/18 05:13:24;;;;;;;69.37;48.17;;;1.10;99.90;2.90;98294.00;;;;5044764;28;20467;-85
2024/02/18 05:16:12;;;;;;;63.90;44.27;;;1.00;99.90;2.90;98289.00;;;;5041703;28;20546;-85
2024/02/18 05:19:04;;;;;;;64.07;43.57;;;1.00;99.90;2.60;98281.00;;;;5041423;28;20450;-86
2024/02/18 05:21:53;;;;;;;68.27;45.67;;;0.90;99.90;2.30;98280.00;;;;5040164;28;20938;-86
2024/02/18 05:24:42;;;;;;;62.73;44.37;;;0.80;99.90;2.30;98279.00;;;;5039223;28;20479;-84
2024/02/18 05:27:31;;;;;;;54.63;40.77;;;0.80;99.90;2.80;98279.00;;;;5045080;28;20439;-85
2024/02/18 05:30:20;;;;;;;58.57;42.73;;;0.80;99.90;3.10;98291.00;;;;5039376;28;20442;-86
2024/02/18 05:33:09;;;;;;;61.73;44.23;;;0.80;99.90;3.30;98295.00;;;;5044961;28;20447;-85
2024/02/18 05:35:59;;;;;;;62.27;43.67;;;0.90;99.90;3.30;98296.00;;;;5039535;28;20431;-82
2024/02/18 05:38:48;;;;;;;78.13;51.10;;;1.00;99.90;3.40;98300.00;;;;5033546;28;20818;-84
2024/02/18 05:41:37;;;;;;;62.03;44.57;;;1.10;99.90;3.40;98301.00;;;;5036761;28;20795;-83
2024/02/18 05:44:26;;;;;;;64.90;45.27;;;1.10;99.90;3.30;98313.00;;;;5042349;28;20992;-83
2024/02/18 05:47:15;;;;;;;67.03;45.27;;;1.10;99.90;3.10;98320.00;;;;5041344;28;20444;-84
2024/02/18 05:50:04;;;;;;;58.37;42.03;;;1.10;99.90;2.60;98316.00;;;;5041235;28;20434;-83
2024/02/18 05:52:55;;;;;;;203.03;132.50;;;0.90;99.90;2.40;98321.00;;;;5031441;28;20420;-83
2024/02/18 05:55:44;;;;;;;69.77;47.20;;;0.80;99.90;2.50;98312.00;;;;5033744;28;20520;-83
2024/02/18 05:58:33;;;;;;;71.57;49.70;;;0.70;99.90;2.90;98323.00;;;;5043643;28;20446;-84
2024/02/18 06:01:22;;;;;;;53.07;39.67;;;0.70;99.90;2.90;98330.00;;;;5026539;28;20427;-84
2024/02/18 06:04:11;;;;;;;55.60;40.67;;;0.70;99.90;2.50;98322.00;;;;5006388;28;20448;-83
2024/02/18 06:06:59;;;;;;;59.80;43.07;;;0.60;99.90;2.10;98323.00;;;;5043943;28;20425;-83
2024/02/18 06:09:50;;;;;;;63.90;43.47;;;0.60;99.90;2.20;98319.00;;;;5039580;28;20468;-83
2024/02/18 06:12:40;;;;;;;182.80;122.00;;;0.50;99.90;2.50;98319.00;;;;5015474;28;20433;-83
2024/02/18 06:15:30;;;;;;;53.97;40.70;;;0.60;99.90;2.60;98323.00;;;;5037792;28;20506;-83
2024/02/18 06:18:19;;;;;;;61.47;44.10;;;0.70;99.90;2.60;98324.00;;;;5045712;28;20439;-84
2024/02/18 06:21:07;;;;;;;58.03;42.13;;;0.80;99.90;2.50;98317.00;;;;5027488;28;20438;-83
2024/02/18 06:23:59;;;;;;;63.03;45.00;;;0.80;99.90;3.10;98326.00;;;;5007828;28;21045;-83
2024/02/18 06:26:49;;;;;;;61.53;44.43;;;-0.10;99.90;3.50;98329.00;;;;5029358;28;20795;-82
2024/02/18 06:29:38;;;;;;;62.47;43.87;;;0.90;99.90;3.70;98337.00;;;;5040379;28;20479;-83
2024/02/18 06:32:27;;;;;;;187.57;130.17;;;1.10;99.90;3.50;98327.00;;;;5008752;28;20440;-83
2024/02/18 06:35:16;;;;;;;63.13;44.60;;;1.10;99.90;3.10;98329.00;;;;5021642;28;20948;-83
2024/02/18 06:38:05;;;;;;;56.30;40.50;;;1.10;99.90;3.20;98331.00;;;;5040821;28;20443;-83
2024/02/18 06:40:54;;;;;;;109.63;67.53;;;1.10;99.90;3.20;98344.00;;;;5015023;28;22676;-86
2024/02/18 06:43:45;;;;;;;68.87;48.13;;;1.30;99.90;3.10;98341.00;;;;5007482;28;20459;-83
2024/02/18 06:46:33;;;;;;;58.67;42.53;;;1.10;99.90;3.20;98346.00;;;;5042436;28;20534;-83
2024/02/18 06:49:22;;;;;;;59.40;43.40;;;1.20;99.90;3.60;98352.00;;;;5037354;28;20991;-84
2024/02/18 06:52:13;;;;;;;65.30;45.83;;;1.30;99.90;3.90;98349.00;;;;5028004;28;20787;-82
2024/02/18 06:55:05;;;;;;;65.80;45.87;;;1.40;99.90;3.90;98345.00;;;;5032577;28;20458;-83
2024/02/18 06:57:53;;;;;;;82.67;53.30;;;1.50;99.90;3.80;98344.00;;;;5041951;28;20419;-83
2024/02/18 07:00:44;;;;;;;233.03;156.47;;;1.60;99.90;3.50;98344.00;;;;5031469;28;20444;-85
2024/02/18 07:03:33;;;;;;;204.43;143.53;;;1.60;99.90;3.30;98347.00;;;;4979050;28;20463;-83
2024/02/18 07:06:22;;;;;;;224.97;153.63;;;1.50;99.90;3.40;98350.00;;;;4976089;28;20488;-83
2024/02/18 07:09:13;;;;;;;214.77;149.30;;;1.50;99.90;3.60;98342.00;;;;4976859;28;20487;-84
2024/02/18 07:12:04;;;;;;;181.73;122.00;;;1.50;99.90;4.00;98358.00;;;;4976570;28;20432;-84
2024/02/18 07:14:53;;;;;;;75.90;50.73;;;1.60;99.90;4.30;98348.00;;;;4985764;28;20443;-84
2024/02/18 07:17:44;;;;;;;203.80;133.97;;;1.80;99.90;4.50;98358.00;;;;4981824;28;20810;-83
2024/02/18 07:20:33;;;;;;;71.03;47.57;;;3.50;99.90;4.20;98359.00;;;;5041730;28;20445;-83
2024/02/18 07:23:22;;;;;;;75.40;50.87;;;1.90;99.90;4.30;98360.00;;;;5034783;28;20470;-83
2024/02/18 07:26:11;;;;;;;92.93;59.67;;;2.00;99.90;4.20;98347.00;;;;4974035;28;22312;-87
2024/02/18 07:29:00;;;;;;;213.77;154.83;;;2.00;99.90;4.00;98346.00;;;;4979428;28;21062;-83
2024/02/18 07:31:53;;;;;;;152.53;94.33;;;2.00;99.90;4.10;98350.00;;;;4965275;28;22102;-83
2024/02/18 07:34:43;;;;;;;238.43;170.57;;;2.00;99.90;4.60;98352.00;;;;4970202;28;20456;-86
2024/02/18 07:37:32;;;;;;;111.00;71.57;;;2.10;99.90;4.60;98347.00;;;;4968225;28;20432;-85
2024/02/18 07:40:21;;;;;;;214.33;144.13;;;2.20;99.90;4.90;98348.00;;;;4980977;28;20959;-85
2024/02/18 07:43:14;;;;;;;149.30;93.83;;;2.30;99.90;5.00;98346.00;;;;4977432;28;20455;-87
2024/02/18 07:46:03;;;;;;;201.23;139.07;;;3.10;99.90;5.10;98349.00;;;;4991603;28;20435;-82
2024/02/18 07:48:52;;;;;;;132.30;84.70;;;2.50;99.90;5.00;98346.00;;;;4987983;28;20449;-83
2024/02/18 07:51:43;;;;;;;216.47;149.03;;;2.60;99.90;4.80;98355.00;;;;4998150;28;20589;-84
2024/02/18 07:54:32;;;;;;;117.60;74.83;;;2.60;99.90;4.70;98345.00;;;;4992690;28;20477;-85
2024/02/18 07:57:21;;;;;;;222.27;152.73;;;2.60;99.90;5.10;98352.00;;;;4994413;28;20438;-85
2024/02/18 08:00:12;;;;;;;222.63;151.17;;;2.70;99.90;5.70;98345.00;;;;5022398;28;20431;-84
2024/02/18 08:03:00;;;;;;;124.63;76.60;;;3.10;99.90;6.20;98354.00;;;;4992498;28;20788;-86
2024/02/18 08:05:49;;;;;;;232.73;160.43;;;3.10;99.90;5.90;98359.00;;;;4995602;28;20446;-84
2024/02/18 08:08:40;;;;;;;179.77;113.97;;;3.30;99.90;5.90;98347.00;;;;4986512;28;22292;-87
2024/02/18 08:11:29;;;;;;;226.43;153.20;;;3.40;99.90;5.90;98350.00;;;;4979253;28;20473;-84
2024/02/18 08:14:19;;;;;;;182.23;119.77;;;3.50;99.90;6.10;98342.00;;;;5001470;28;21203;-87
2024/02/18 08:17:08;;;;;;;221.57;143.33;;;3.60;99.90;6.20;98349.00;;;;4983954;28;20885;-83
2024/02/18 08:19:59;;;;;;;230.53;145.37;;;3.70;99.90;6.40;98354.00;;;;4986686;28;20568;-83
2024/02/18 08:22:48;;;;;;;231.07;154.47;;;3.80;99.90;6.90;98342.00;;;;4982452;28;20204;-84
2024/02/18 08:25:39;;;;;;;248.80;164.47;;;4.00;99.90;7.10;98346.00;;;;4981419;28;20691;-83
2024/02/18 08:28:28;;;;;;;282.93;189.57;;;5.20;99.90;7.10;98341.00;;;;4965834;28;20697;-84
2024/02/18 08:31:18;;;;;;;288.97;194.63;;;4.40;99.90;7.30;98342.00;;;;4973989;28;20267;-84
2024/02/18 08:34:06;;;;;;;147.10;74.17;;;4.60;99.90;7.70;98357.00;;;;5000642;28;20778;-84
2024/02/18 08:36:57;;;;;;;295.97;191.37;;;4.80;99.90;8.20;98355.00;;;;5023153;28;20201;-85
2024/02/18 08:39:46;;;;;;;147.73;76.43;;;5.00;99.90;8.10;98343.00;;;;5029050;28;20253;-83
2024/02/18 08:42:37;;;;;;;141.33;75.70;;;5.20;99.90;8.10;98348.00;;;;5043253;28;20201;-83
2024/02/18 08:45:26;;;;;;;144.67;75.20;;;5.30;99.90;8.60;98354.00;;;;5023052;28;20200;-87
2024/02/18 08:48:14;;;;;;;150.13;74.53;;;5.50;99.90;9.00;98353.00;;;;5056913;28;20189;-83
2024/02/18 08:51:03;;;;;;;158.77;79.80;;;5.70;99.90;9.00;98345.00;;;;5049187;28;20599;-84
2024/02/18 08:53:52;;;;;;;253.60;160.70;;;5.90;99.90;8.70;98346.00;;;;5034997;28;20228;-83
2024/02/18 08:56:41;;;;;;;152.83;81.57;;;6.00;99.90;8.60;98338.00;;;;4997721;28;20209;-87
2024/02/18 08:59:31;;;;;;;155.23;82.07;;;6.10;99.90;8.40;98330.00;;;;5050305;28;20208;-85
2024/02/18 09:02:21;;;;;;;162.33;84.63;;;6.10;99.90;8.90;98336.00;;;;4992113;28;20230;-88
2024/02/18 09:05:10;;;;;;;157.50;81.63;;;6.20;99.90;8.50;98331.00;;;;5026549;28;20240;-84
2024/02/18 09:07:59;;;;;;;291.17;190.07;;;6.20;99.90;8.60;98332.00;;;;5009828;28;20212;-85
2024/02/18 09:10:48;;;;;;;171.17;91.23;;;6.30;99.90;8.70;98331.00;;;;5036978;28;20589;-85
2024/02/18 09:13:37;;;;;;;145.10;81.70;;;6.30;99.90;8.50;98320.00;;;;5049497;28;20213;-86
2024/02/18 09:16:27;;;;;;;149.90;80.27;;;6.30;99.90;8.70;98317.00;;;;5048815;28;20197;-87
2024/02/18 09:19:17;;;;;;;150.50;83.07;;;6.30;99.90;8.90;98314.00;;;;5048875;28;20591;-85
2024/02/18 09:22:06;;;;;;;138.10;74.83;;;6.40;99.90;9.30;98316.00;;;;5048483;28;20219;-85
2024/02/18 09:24:56;;;;;;;155.60;84.10;;;6.60;99.90;10.10;98319.00;;;;5046546;28;20256;-85
2024/02/18 09:27:45;;;;;;;179.87;94.20;;;6.80;99.90;10.10;98305.00;;;;5038744;28;20544;-84
2024/02/18 09:30:34;;;;;;;176.90;90.63;;;7.00;99.90;10.30;98310.00;;;;5037850;28;20233;-84
2024/02/18 09:33:24;;;;;;;198.13;101.10;;;7.30;99.90;10.30;98290.00;;;;5040032;28;20236;-86
2024/02/18 09:36:13;;;;;;;186.57;98.20;;;7.50;99.90;10.30;98293.00;;;;5047336;28;20205;-86
2024/02/18 09:39:02;;;;;;;177.90;91.43;;;7.60;99.90;10.70;98285.00;;;;5047507;28;20216;-87
2024/02/18 09:41:52;;;;;;;177.73;98.63;;;7.70;99.90;10.40;98269.00;;;;5044859;28;20201;-87
2024/02/18 09:44:43;;;;;;;168.87;93.00;;;7.80;99.90;10.80;98265.00;;;;5045827;28;20243;-88
2024/02/18 09:47:32;;;;;;;161.50;87.70;;;8.00;99.90;11.10;98260.00;;;;5039379;28;20217;-85
2024/02/18 09:50:23;;;;;;;331.57;218.90;;;8.20;99.90;11.20;98267.00;;;;5012714;28;20221;-85
2024/02/18 09:53:14;;;;;;;172.73;95.40;;;8.40;99.90;12.00;98260.00;;;;5031944;28;20220;-84
2024/02/18 09:56:03;;;;;;;180.80;94.03;;;9.40;99.90;12.60;98258.00;;;;5046313;28;20213;-85
2024/02/18 09:58:52;;;;;;;197.77;102.93;;;8.90;99.90;12.90;98256.00;;;;5035636;28;20209;-86
2024/02/18 10:01:42;;;;;;;340.77;226.00;;;9.30;99.90;13.10;98264.00;;;;4963237;28;20775;-85
2024/02/18 10:04:33;;;;;;;204.50;104.80;;;9.50;99.90;13.50;98274.00;;;;5011976;28;20224;-85
2024/02/18 10:07:23;;;;;;;209.17;106.30;;;9.80;99.90;13.90;98278.00;;;;5037434;28;20269;-86
2024/02/18 10:10:12;;;;;;;222.47;117.57;;;10.10;99.90;14.10;98263.00;;;;5040599;28;20232;-87
2024/02/18 10:13:02;;;;;;;229.97;117.90;;;10.40;99.90;14.30;98256.00;;;;5044112;28;20221;-87
2024/02/18 10:15:52;;;;;;;246.93;130.80;;;10.70;99.90;14.60;98251.00;;;;5047328;28;20204;-85
2024/02/18 10:18:43;;;;;;;358.13;218.23;;;11.00;99.90;14.80;98239.00;;;;4959372;28;21891;-88
2024/02/18 10:21:32;;;;;;;246.67;123.60;;;11.20;99.90;15.10;98232.00;;;;5005168;28;20206;-86
2024/02/18 10:24:23;;;;;;;344.40;188.70;;;11.50;99.90;15.30;98239.00;;;;5030940;28;20391;-87
2024/02/18 10:27:12;;;;;;;429.93;265.40;;;11.70;99.90;15.60;98231.00;;;;4963354;28;21873;-87
2024/02/18 10:30:01;;;;;;;375.80;222.60;;;11.90;99.90;15.80;98225.00;;;;4952158;28;20767;-87
2024/02/18 10:32:51;;;;;;;387.57;259.43;;;12.10;99.90;16.00;98231.00;;;;4965908;28;20201;-87
2024/02/18 10:35:43;;;;;;;298.53;187.53;;;12.30;99.90;16.20;98223.00;;;;4955294;28;20206;-87
2024/02/18 10:38:35;;;;;;;414.90;274.40;;;12.40;99.90;16.40;98212.00;;;;4964969;28;20205;-87
2024/02/18 10:41:35;;;;;;;261.30;142.17;;;12.60;99.90;16.80;98218.00;;;;4982517;28;20763;-88
2024/02/18 10:44:24;;;;;;;308.87;158.47;;;12.90;99.90;17.10;98218.00;;;;5014581;28;20224;-88
2024/02/18 10:47:16;;;;;;;429.13;286.40;;;13.10;99.90;17.50;98215.00;;;;5018588;28;20208;-86
2024/02/18 10:50:09;;;;;;;430.03;281.07;;;13.60;99.90;17.60;98202.00;;;;4964263;28;20205;-87
2024/02/18 10:53:03;;;;;;;345.77;210.40;;;;;18.50;98204.00;;;;4958509;28;20791;-90
2024/02/18 10:56:02;;;;;;;475.10;320.13;;;;;19.00;98198.00;;;;4962145;28;20408;-87
2024/02/18 10:58:59;;;;;;;469.97;325.23;;;;;19.50;98199.00;;;;5011422;28;20216;-88
2024/02/18 11:01:55;;;;;;;365.13;252.50;;;;;19.20;98188.00;;;;4954102;28;20200;-87
2024/02/18 11:04:46;;;;;;;507.03;364.50;;;;;19.40;98184.00;;;;4965153;28;20228;-87
2024/02/18 11:07:36;;;;;;;486.27;356.67;;;;;19.50;98173.00;;;;4968467;28;20201;-87
2024/02/18 11:10:25;;;;;;;499.47;368.87;;;;;18.50;98159.00;;;;4967075;28;20209;-87
2024/02/18 11:13:15;;;;;;;500.80;380.40;;;;;18.30;98156.00;;;;4965576;28;20221;-88
2024/02/18 11:16:09;;;;;;;360.20;275.53;;;;;19.30;98169.00;;;;5016244;28;20677;-86
2024/02/18 11:18:58;;;;;;;385.60;285.70;;;;;19.10;98150.00;;;;5036743;28;20223;-86
2024/02/18 11:21:50;;;;;;;398.73;280.13;;;;;18.60;98133.00;;;;5045177;28;20209;-87
2024/02/18 11:24:39;;;;;;;366.60;278.73;;;;;20.30;98174.00;;;;5046546;28;20303;-88
2024/02/18 11:27:28;;;;;;;374.10;278.43;;;;;19.90;98176.00;;;;5045525;28;20730;-86
2024/02/18 11:30:18;;;;;;;390.87;282.93;;;;;17.50;98169.00;;;;5035648;28;20212;-89
2024/02/18 11:33:08;;;;;;;376.50;269.40;;;;;17.80;98179.00;;;;5044239;28;20713;-87
2024/02/18 11:36:17;;;;;;;520.17;375.27;;;;;17.60;98163.00;;;;4976919;28;20193;-87
2024/02/18 11:39:08;;;;;;;365.43;244.00;;;;;18.00;98157.00;;;;5043072;28;20265;-86
2024/02/18 11:41:59;;;;;;;367.07;242.20;;;;;18.40;98147.00;;;;5042858;28;20212;-87
2024/02/18 11:44:49;;;;;;;348.13;231.77;;;;;18.60;98135.00;;;;5048028;28;20231;-87
2024/02/18 11:47:38;;;;;;;334.43;227.63;;;;;18.90;98121.00;;;;5042294;28;20572;-87
2024/02/18 11:50:28;;;;;;;359.87;231.33;;;;;19.30;98139.00;;;;5035715;28;20204;-88
2024/02/18 11:53:19;;;;;;;467.87;314.73;;;;;18.70;98119.00;;;;5006471;28;20232;-87
2024/02/18 11:56:08;;;;;;;430.90;290.00;;;;;20.30;98112.00;;;;5036024;28;20198;-87
2024/02/18 11:58:58;;;;;;;527.93;380.80;;;;;19.60;98140.00;;;;5002095;28;21087;-86
2024/02/18 12:01:53;;;;;;;540.77;399.40;;;;;18.50;98092.00;;;;4960834;28;20270;-87
2024/02/18 12:04:43;;;;;;;534.40;399.10;;;;;21.10;98096.00;;;;4964062;28;20229;-86
2024/02/18 12:07:36;;;;;;;438.33;340.27;;;;;20.80;98137.00;;;;4955588;28;20246;-88
2024/02/18 12:10:26;;;;;;;540.80;406.27;;;;;19.00;98136.00;;;;4982742;28;20366;-87
2024/02/18 12:13:16;;;;;;;403.07;300.90;;;;;17.90;98138.00;;;;5051379;28;20232;-87
2024/02/18 12:16:09;;;;;;;395.50;288.90;;;;;17.70;98131.00;;;;5043287;28;20192;-88
2024/02/18 12:18:58;;;;;;;399.77;282.80;;;;;17.20;98125.00;;;;4993293;28;21696;-88
2024/02/18 12:21:53;;;;;;;375.57;262.10;;;;;17.10;98112.00;;;;5034610;28;20201;-87
2024/02/18 12:24:44;;;;;;;370.90;248.53;;;;;16.90;98097.00;;;;5043034;28;20422;-88
2024/02/18 12:27:33;;;;;;;363.33;235.33;;;;;17.10;98080.00;;;;5047845;28;20213;-87
2024/02/18 12:30:22;;;;;;;368.87;232.97;;;;;18.60;98094.00;;;;5046768;28;20598;-87
2024/02/18 12:33:12;;;;;;;371.37;234.57;;;;;19.40;98072.00;;;;5050684;28;20631;-86
2024/02/18 12:36:02;;;;;;;393.37;253.17;;;;;17.70;98044.00;;;;5045600;28;20681;-86